»·PEaware :: N939MA KSBD-KEMT

N939MA :: KSBD-KEMT

FLIGHT INFORMATION

Flight Status: Arrived
Operator: Privately registered:
United States
More flights under this callsign
Pilot: Lary E. (11379)
Aircraft: CESSNA 172 SKYHAWK
(C172)
More flights by this aircraft type
Origin: KSBD San Bernardino Intl
United States
Destination: KEMT El Monte
United States
More flights between these airports :: More routes between these airports
Route: KSBD POM KEMT
File this flight plan on PilotEdge
Remarks:
Altitude:
(Current/Filed)
4,500ft
Speed:
(Current/Filed)
110kts
Departed: 28-Sep-18 06:38 PM
Arrived: 28-Sep-18 07:10 PM
Distance/Time
Traveled:
40nm/0:32
Distance/Time
To Go:
Arrived

Flight Plot

Page will automatically refresh every two minutes.

Flight plan parsing failed; only flown route is shown


Map Options




Map Legend


Flown Route
Filed Route
Departure Airport
Arrival Airport
Navaid (VOR, NDB)
Fix

Horizontal Profiles

Position Reports

Time Latitude Longitude Heading Altitude Ground
Speed
28-Sep-18 18:25 34.100699 -117.242634 0 1101ft 0kts
28-Sep-18 18:26 34.100699 -117.242634 89 1101ft 0kts
28-Sep-18 18:27 34.100699 -117.242634 89 1101ft 0kts
28-Sep-18 18:28 34.100699 -117.242634 89 1101ft 0kts
28-Sep-18 18:29 34.100699 -117.242634 89 1101ft 0kts
28-Sep-18 18:30 34.100699 -117.242634 89 1101ft 0kts
28-Sep-18 18:31 34.100699 -117.242634 89 1101ft 0kts
28-Sep-18 18:32 34.100700 -117.242609 88 1101ft 1kts
28-Sep-18 18:33 34.102437 -117.241393 62 1105ft 13kts
28-Sep-18 18:34 34.102015 -117.236609 106 1117ft 16kts
28-Sep-18 18:35 34.100713 -117.231267 106 1130ft 16kts
28-Sep-18 18:36 34.100315 -117.225669 82 1143ft 16kts
28-Sep-18 18:37 34.101404 -117.220432 86 1157ft 15kts
28-Sep-18 18:38 34.100950 -117.219799 162 1159ft 0kts
28-Sep-18 18:39 34.099422 -117.220858 248 1155ft 31kts
28-Sep-18 18:40 34.092606 -117.242008 250 2002ft 75kts
28-Sep-18 18:41 34.090924 -117.266154 271 3005ft 75kts
28-Sep-18 18:42 34.088835 -117.291549 264 3953ft 78kts
28-Sep-18 18:43 34.088409 -117.317752 273 4592ft 102kts
28-Sep-18 18:44 34.090123 -117.353249 272 4565ft 116kts
28-Sep-18 18:45 34.091576 -117.390552 272 4534ft 109kts
28-Sep-18 18:46 34.098211 -117.421818 333 4608ft 107kts
28-Sep-18 18:47 34.113687 -117.399099 72 4654ft 107kts
28-Sep-18 18:48 34.122072 -117.365232 68 4698ft 105kts
28-Sep-18 18:49 34.111631 -117.354815 263 4715ft 107kts
28-Sep-18 18:50 34.109934 -117.390548 265 4664ft 112kts
28-Sep-18 18:51 34.107072 -117.427687 264 4520ft 114kts
28-Sep-18 18:52 34.104281 -117.464070 264 4561ft 110kts
28-Sep-18 18:53 34.098978 -117.500389 258 4537ft 109kts
28-Sep-18 18:54 34.094330 -117.536162 264 4497ft 112kts
28-Sep-18 18:55 34.092336 -117.573173 263 4465ft 110kts
28-Sep-18 18:56 34.088872 -117.608813 262 4503ft 109kts
28-Sep-18 18:57 34.083868 -117.644574 258 4454ft 114kts
28-Sep-18 18:58 34.080504 -117.677630 264 4592ft 105kts
28-Sep-18 18:59 34.079236 -117.710575 265 4716ft 103kts
28-Sep-18 19:00 34.077753 -117.745288 267 4731ft 108kts
28-Sep-18 19:01 34.078255 -117.782275 274 4644ft 112kts
28-Sep-18 19:02 34.080872 -117.817678 273 4256ft 99kts
28-Sep-18 19:03 34.083980 -117.849196 278 3677ft 97kts
28-Sep-18 19:04 34.087366 -117.881444 276 3008ft 98kts
28-Sep-18 19:05 34.091766 -117.912219 287 2386ft 99kts
28-Sep-18 19:06 34.103202 -117.940047 295 1799ft 95kts
28-Sep-18 19:07 34.114439 -117.966374 295 1411ft 80kts
28-Sep-18 19:08 34.123158 -117.986896 285 1307ft 65kts
28-Sep-18 19:09 34.118553 -118.004979 243 1004ft 68kts
28-Sep-18 19:10 34.107927 -118.021989 213 655ft 67kts
28-Sep-18 19:11 34.092205 -118.031279 205 394ft 62kts
28-Sep-18 19:12 34.085442 -118.034695 150 287ft 0kts
28-Sep-18 19:13 34.085442 -118.034695 150 287ft 0kts
28-Sep-18 19:14 34.084058 -118.033485 196 290ft 0kts
28-Sep-18 19:15 34.084057 -118.033485 196 290ft 0kts
28-Sep-18 19:16 34.084057 -118.033485 196 290ft 0kts
28-Sep-18 19:17 34.084057 -118.033485 196 290ft 0kts

Navigation Log

Ident Type
Flight plan parsing failed, navigation log unavailable